Time;durP1;ratioP1;P1;durP2;ratioP2;P2;SDS_P1;SDS_P2;PMS_P1;PMS_P2;Temp;Humidity;BMP_temperature;BMP_pressure;BME280_temperature;BME280_humidity;BME280_pressure;Samples;Min_cycle;Max_cycle;Signal;HPM_P1;HPM_P2
2023/12/27 00:00:35;;;;;;;12.10;4.13;;;4.40;99.90;;;;;;5074713;28;20045;-77
2023/12/27 00:03:01;;;;;;;11.07;3.38;;;4.40;99.90;;;;;;5074616;28;20055;-75
2023/12/27 00:05:26;;;;;;;14.70;3.65;;;4.40;99.90;;;;;;5057920;28;20131;-77
2023/12/27 00:07:52;;;;;;;13.05;3.72;;;4.30;99.90;;;;;;5056701;28;20053;-76
2023/12/27 00:10:18;;;;;;;22.83;3.97;;;4.40;99.90;;;;;;5074800;28;20135;-77
2023/12/27 00:12:44;;;;;;;10.80;3.40;;;4.30;99.90;;;;;;5040833;28;20059;-77
2023/12/27 00:15:10;;;;;;;11.20;3.50;;;4.30;99.90;;;;;;5058031;28;20052;-77
2023/12/27 00:17:35;;;;;;;13.20;3.20;;;4.30;99.90;;;;;;5074687;28;20052;-77
2023/12/27 00:20:02;;;;;;;16.25;3.83;;;4.30;99.90;;;;;;5073470;28;20126;-77
2023/12/27 00:22:28;;;;;;;9.82;3.42;;;4.30;99.90;;;;;;5057455;28;20051;-77
2023/12/27 00:24:54;;;;;;;13.55;3.28;;;4.20;99.90;;;;;;5057236;28;20048;-77
2023/12/27 00:27:19;;;;;;;17.15;3.83;;;4.20;99.90;;;;;;5075390;28;20059;-77
2023/12/27 00:29:45;;;;;;;13.75;3.92;;;4.20;99.90;;;;;;5076291;28;20040;-78
2023/12/27 00:32:11;;;;;;;10.77;3.03;;;4.20;99.90;;;;;;5076144;28;20070;-77
2023/12/27 00:34:38;;;;;;;12.57;3.30;;;4.20;99.90;;;;;;5041467;28;20083;-77
2023/12/27 00:37:04;;;;;;;11.27;3.50;;;4.10;99.90;;;;;;5075441;28;20056;-77
2023/12/27 00:39:30;;;;;;;12.98;3.38;;;4.10;99.90;;;;;;5074060;28;20052;-77
2023/12/27 00:41:56;;;;;;;14.18;4.10;;;4.10;99.90;;;;;;5057521;28;20513;-77
2023/12/27 00:44:22;;;;;;;9.85;3.00;;;4.10;99.90;;;;;;5074540;28;20127;-77
2023/12/27 00:46:48;;;;;;;10.32;3.38;;;4.10;99.90;;;;;;5056573;28;20052;-77
2023/12/27 00:49:15;;;;;;;9.35;3.22;;;4.00;99.90;;;;;;5073711;28;20153;-77
2023/12/27 00:51:40;;;;;;;11.10;3.35;;;4.00;99.90;;;;;;5072929;28;20182;-76
2023/12/27 00:54:06;;;;;;;11.82;3.45;;;4.00;99.90;;;;;;5056161;28;20083;-77
2023/12/27 00:56:32;;;;;;;13.55;3.85;;;4.00;99.90;;;;;;5073458;28;20468;-77
2023/12/27 00:58:58;;;;;;;11.40;3.20;;;4.00;99.90;;;;;;5073209;28;20056;-77
2023/12/27 01:01:23;;;;;;;14.63;3.25;;;4.00;99.90;;;;;;5074922;28;20049;-77
2023/12/27 01:03:49;;;;;;;11.80;3.67;;;4.00;99.90;;;;;;5073751;28;20037;-78
2023/12/27 01:06:15;;;;;;;12.55;3.28;;;3.90;99.90;;;;;;5074561;28;20048;-77
2023/12/27 01:08:41;;;;;;;10.00;2.97;;;3.90;99.90;;;;;;5075403;28;20084;-77
2023/12/27 01:11:07;;;;;;;9.70;3.10;;;3.90;99.90;;;;;;5073286;28;20180;-77
2023/12/27 01:13:32;;;;;;;10.20;3.10;;;3.90;99.90;;;;;;5057810;28;20483;-77
2023/12/27 01:16:01;;;;;;;11.57;3.80;;;3.80;99.90;;;;;;5057833;28;20100;-77
2023/12/27 01:18:27;;;;;;;11.02;3.70;;;3.80;99.90;;;;;;5073960;28;20082;-77
2023/12/27 01:20:53;;;;;;;15.13;3.75;;;3.80;99.90;;;;;;5074729;28;20391;-77
2023/12/27 01:23:18;;;;;;;10.88;3.08;;;3.80;99.90;;;;;;5058280;28;20098;-76
2023/12/27 01:25:44;;;;;;;12.55;3.22;;;3.80;99.90;;;;;;5074835;28;20048;-77
2023/12/27 01:28:10;;;;;;;15.05;3.92;;;3.80;99.90;;;;;;5073501;28;20104;-77
2023/12/27 01:30:35;;;;;;;12.77;4.13;;;3.80;99.90;;;;;;5073891;28;20047;-77
2023/12/27 01:33:01;;;;;;;11.43;3.63;;;3.70;99.90;;;;;;5073097;28;20048;-77
2023/12/27 01:35:27;;;;;;;12.48;3.58;;;3.70;99.90;;;;;;5074746;28;20066;-77
2023/12/27 01:37:53;;;;;;;11.60;3.85;;;3.70;99.90;;;;;;5073023;28;20053;-77
2023/12/27 01:40:19;;;;;;;12.80;4.05;;;3.70;99.90;;;;;;5074572;28;20048;-76
2023/12/27 01:42:45;;;;;;;12.70;3.92;;;3.80;99.90;;;;;;5056820;28;20123;-77
2023/12/27 01:45:10;;;;;;;12.43;3.63;;;4.00;99.90;;;;;;5057207;28;20084;-76
2023/12/27 01:47:37;;;;;;;9.43;3.88;;;3.70;99.90;;;;;;5074137;28;20055;-77
2023/12/27 01:50:10;;;;;;;13.80;3.88;;;4.00;99.90;;;;;;5056569;28;20044;-76
2023/12/27 01:52:37;;;;;;;13.13;3.80;;;3.70;99.90;;;;;;5073821;28;20040;-76
2023/12/27 01:55:04;;;;;;;17.08;3.90;;;3.70;99.90;;;;;;5074889;28;20457;-76
2023/12/27 01:57:29;;;;;;;9.18;3.47;;;3.70;99.90;;;;;;5073366;28;20076;-77
2023/12/27 01:59:55;;;;;;;13.77;3.67;;;3.60;99.90;;;;;;5073061;28;20141;-76
2023/12/27 02:02:22;;;;;;;11.38;3.92;;;3.60;99.90;;;;;;5055014;28;20187;-76
2023/12/27 02:04:48;;;;;;;11.77;3.53;;;3.60;99.90;;;;;;5073614;28;20048;-76
2023/12/27 02:07:14;;;;;;;12.88;3.70;;;3.60;99.90;;;;;;5039364;28;20645;-76
2023/12/27 02:09:41;;;;;;;15.23;3.92;;;3.60;99.90;;;;;;5072425;28;20055;-76
2023/12/27 02:12:07;;;;;;;10.98;4.20;;;3.80;99.90;;;;;;5055234;28;20056;-76
2023/12/27 02:14:32;;;;;;;10.98;3.50;;;3.60;99.90;;;;;;5072146;28;20368;-76
2023/12/27 02:17:00;;;;;;;19.95;4.20;;;3.60;99.90;;;;;;5038938;28;20049;-76
2023/12/27 02:19:26;;;;;;;14.32;3.65;;;3.60;99.90;;;;;;5073770;28;20047;-76
2023/12/27 02:21:54;;;;;;;15.75;4.03;;;3.50;99.90;;;;;;5040702;28;20499;-77
2023/12/27 02:24:21;;;;;;;19.30;4.25;;;3.60;99.90;;;;;;5072512;28;20556;-77
2023/12/27 02:26:47;;;;;;;16.20;4.25;;;3.70;99.90;;;;;;5073623;28;20093;-76
2023/12/27 02:29:14;;;;;;;17.92;3.70;;;3.50;99.90;;;;;;5072222;28;20055;-76
2023/12/27 02:31:40;;;;;;;8.05;3.28;;;3.50;99.90;;;;;;5056931;28;20052;-76
2023/12/27 02:34:05;;;;;;;17.98;4.00;;;3.50;99.90;;;;;;5073461;28;20116;-76
2023/12/27 02:36:31;;;;;;;14.90;3.72;;;3.50;99.90;;;;;;5073157;28;20044;-76
2023/12/27 02:38:57;;;;;;;17.08;4.18;;;3.40;99.90;;;;;;5073157;28;20136;-76
2023/12/27 02:41:22;;;;;;;12.90;3.65;;;3.50;99.90;;;;;;5074211;28;20404;-76
2023/12/27 02:43:48;;;;;;;9.98;3.10;;;3.60;99.90;;;;;;5074730;28;20052;-76
2023/12/27 02:46:14;;;;;;;20.73;4.80;;;3.50;99.90;;;;;;5072764;28;20063;-77
2023/12/27 02:48:39;;;;;;;13.50;3.50;;;3.40;99.90;;;;;;5073630;28;20413;-76
2023/12/27 02:51:06;;;;;;;15.52;3.50;;;3.50;99.90;;;;;;5055636;28;20088;-77
2023/12/27 02:53:31;;;;;;;19.55;4.28;;;3.40;99.90;;;;;;5072594;28;20066;-76
2023/12/27 02:55:57;;;;;;;13.80;3.67;;;3.40;99.90;;;;;;5073648;28;20128;-76
2023/12/27 02:58:23;;;;;;;10.18;3.70;;;3.40;99.90;;;;;;5074114;28;20039;-76
2023/12/27 03:00:49;;;;;;;16.05;3.40;;;3.50;99.90;;;;;;5055943;28;20422;-76
2023/12/27 03:03:15;;;;;;;10.20;3.40;;;3.40;99.90;;;;;;5071350;28;20053;-76
2023/12/27 03:05:41;;;;;;;14.50;3.60;;;3.30;99.90;;;;;;5072641;28;20052;-76
2023/12/27 03:08:06;;;;;;;10.32;3.22;;;3.40;99.90;;;;;;5072164;28;20055;-76
2023/12/27 03:10:32;;;;;;;9.20;3.08;;;3.40;99.90;;;;;;5072632;28;20047;-76
2023/12/27 03:12:58;;;;;;;11.23;2.95;;;3.30;99.90;;;;;;5054531;28;20055;-76
2023/12/27 03:15:23;;;;;;;12.65;3.55;;;3.40;99.90;;;;;;5071138;28;20123;-77
2023/12/27 03:17:49;;;;;;;11.57;3.25;;;3.30;99.90;;;;;;5072797;28;20141;-76
2023/12/27 03:20:15;;;;;;;12.40;3.65;;;3.30;99.90;;;;;;5070828;28;20059;-76
2023/12/27 03:22:40;;;;;;;13.63;3.40;;;3.40;99.90;;;;;;5071788;28;20088;-76
2023/12/27 03:25:06;;;;;;;10.30;3.30;;;3.30;99.90;;;;;;5072406;28;20508;-76
2023/12/27 03:27:32;;;;;;;11.07;3.58;;;3.30;99.90;;;;;;5071379;28;20051;-76
2023/12/27 03:29:58;;;;;;;15.07;3.40;;;3.40;99.90;;;;;;5071692;28;20055;-75
2023/12/27 03:32:24;;;;;;;14.32;3.47;;;3.30;99.90;;;;;;5071480;28;20087;-75
2023/12/27 03:34:50;;;;;;;15.55;3.85;;;3.40;99.90;;;;;;5038117;28;20045;-76
2023/12/27 03:37:15;;;;;;;13.13;3.40;;;3.40;99.90;;;;;;5070772;28;20060;-76
2023/12/27 03:39:44;;;;;;;10.95;3.35;;;3.40;99.90;;;;;;5071005;28;20115;-75
2023/12/27 03:42:12;;;;;;;9.70;2.83;;;3.40;99.90;;;;;;5073844;28;20052;-76
2023/12/27 03:44:38;;;;;;;12.15;3.35;;;3.30;99.90;;;;;;5074377;28;20056;-76
2023/12/27 03:47:04;;;;;;;12.88;4.25;;;3.40;99.90;;;;;;5074901;28;20063;-76
2023/12/27 03:49:30;;;;;;;10.80;3.70;;;3.30;99.90;;;;;;5073947;28;20040;-77
2023/12/27 03:51:56;;;;;;;12.15;3.17;;;3.30;99.90;;;;;;5074836;28;20041;-76
2023/12/27 03:54:21;;;;;;;12.30;3.75;;;3.30;99.90;;;;;;5074030;28;20434;-77
2023/12/27 03:56:47;;;;;;;12.68;3.60;;;3.30;99.90;;;;;;5074807;28;20131;-76
2023/12/27 03:59:13;;;;;;;17.33;4.20;;;3.30;99.90;;;;;;5074275;28;20040;-77
2023/12/27 04:01:39;;;;;;;12.60;3.28;;;3.30;99.90;;;;;;5058012;28;20044;-77
2023/12/27 04:04:05;;;;;;;17.23;3.50;;;3.40;99.90;;;;;;5076181;28;20048;-77
2023/12/27 04:06:31;;;;;;;10.63;3.20;;;3.30;99.90;;;;;;5074420;28;20040;-77
2023/12/27 04:08:56;;;;;;;14.68;3.88;;;3.30;99.90;;;;;;5058591;28;20090;-76
2023/12/27 04:11:22;;;;;;;10.48;3.72;;;3.30;99.90;;;;;;5058264;28;20044;-76
2023/12/27 04:13:48;;;;;;;11.32;3.22;;;3.20;99.90;;;;;;5074854;28;20044;-76
2023/12/27 04:16:14;;;;;;;10.95;3.40;;;3.20;99.90;;;;;;5041487;28;20083;-77
2023/12/27 04:18:39;;;;;;;12.88;3.33;;;3.20;99.90;;;;;;5075761;28;20052;-76
2023/12/27 04:21:05;;;;;;;11.02;3.78;;;3.10;99.90;;;;;;5075768;28;20041;-76
2023/12/27 04:23:31;;;;;;;10.35;3.10;;;3.50;99.90;;;;;;5057404;28;20174;-76
2023/12/27 04:25:56;;;;;;;13.40;3.47;;;3.10;99.90;;;;;;5056071;28;20052;-75
2023/12/27 04:28:22;;;;;;;13.10;4.03;;;3.30;99.90;;;;;;5074093;28;20052;-75
2023/12/27 04:30:48;;;;;;;14.52;3.83;;;3.10;99.90;;;;;;5074734;28;20399;-76
2023/12/27 04:33:14;;;;;;;14.13;3.70;;;3.20;99.90;;;;;;5074991;28;20048;-76
2023/12/27 04:35:40;;;;;;;13.00;3.78;;;3.10;99.90;;;;;;5076838;28;20047;-75
2023/12/27 04:38:06;;;;;;;12.57;3.83;;;3.20;99.90;;;;;;5075229;28;20076;-74
2023/12/27 04:40:32;;;;;;;15.05;4.03;;;3.20;99.90;;;;;;5074241;28;20138;-76
2023/12/27 04:42:59;;;;;;;11.18;3.53;;;3.10;99.90;;;;;;5075000;28;20040;-75
2023/12/27 04:45:25;;;;;;;12.48;3.97;;;3.20;99.90;;;;;;5074075;28;20051;-76
2023/12/27 04:47:51;;;;;;;13.55;3.53;;;3.30;99.90;;;;;;5091760;28;20114;-75
2023/12/27 04:50:17;;;;;;;21.38;4.10;;;3.20;99.90;;;;;;5074824;28;20376;-76
2023/12/27 04:52:43;;;;;;;13.50;3.80;;;3.10;99.90;;;;;;5075141;28;20045;-76
2023/12/27 04:55:09;;;;;;;16.15;3.85;;;3.30;99.90;;;;;;5058650;28;20047;-76
2023/12/27 04:57:34;;;;;;;13.05;3.80;;;3.20;99.90;;;;;;5042079;28;20044;-76
2023/12/27 05:00:00;;;;;;;14.60;3.65;;;3.20;99.90;;;;;;5074583;28;20044;-76
2023/12/27 05:02:26;;;;;;;14.98;4.03;;;3.20;99.90;;;;;;5074963;28;20084;-77
2023/12/27 05:04:51;;;;;;;11.30;3.47;;;3.50;99.90;;;;;;5056797;28;20088;-77
2023/12/27 05:07:17;;;;;;;13.82;3.90;;;3.20;99.90;;;;;;5076531;28;20052;-77
2023/12/27 05:09:43;;;;;;;14.30;3.45;;;3.50;99.90;;;;;;5057343;28;20045;-78
2023/12/27 05:12:09;;;;;;;16.98;4.00;;;3.20;99.90;;;;;;5075255;28;20044;-76
2023/12/27 05:14:35;;;;;;;14.30;4.18;;;3.30;99.90;;;;;;5057093;28;20052;-75
2023/12/27 05:17:00;;;;;;;12.27;3.40;;;3.20;99.90;;;;;;5057979;28;20373;-76
2023/12/27 05:19:26;;;;;;;11.05;3.78;;;3.20;99.90;;;;;;5074354;28;20052;-76
2023/12/27 05:21:52;;;;;;;15.25;3.85;;;3.40;99.90;;;;;;5075323;28;20045;-76
2023/12/27 05:24:18;;;;;;;15.07;3.72;;;3.20;99.90;;;;;;5074384;28;20048;-75
2023/12/27 05:26:43;;;;;;;17.45;4.50;;;3.20;99.90;;;;;;5074294;28;20048;-76
2023/12/27 05:29:10;;;;;;;16.92;3.72;;;3.20;99.90;;;;;;5075527;28;20398;-76
2023/12/27 05:31:36;;;;;;;10.93;3.60;;;3.10;99.90;;;;;;5073273;28;20052;-76
2023/12/27 05:34:02;;;;;;;14.25;3.90;;;3.20;99.90;;;;;;5073940;28;20049;-76
2023/12/27 05:36:28;;;;;;;23.52;4.57;;;3.30;99.90;;;;;;5073918;28;20056;-76
2023/12/27 05:38:54;;;;;;;12.63;4.15;;;3.20;99.90;;;;;;5072476;28;20052;-76
2023/12/27 05:41:24;;;;;;;15.40;4.28;;;3.20;99.90;;;;;;5055766;28;20055;-76
2023/12/27 05:43:50;;;;;;;13.63;4.03;;;3.20;99.90;;;;;;5074657;28;20544;-75
2023/12/27 05:46:15;;;;;;;16.45;3.97;;;3.20;99.90;;;;;;5056958;28;20119;-76
2023/12/27 05:48:41;;;;;;;14.65;4.22;;;3.20;99.90;;;;;;5073863;28;20364;-76
2023/12/27 05:51:07;;;;;;;14.32;3.95;;;3.30;99.90;;;;;;5056307;28;20168;-76
2023/12/27 05:53:32;;;;;;;10.02;3.70;;;3.20;99.90;;;;;;5072558;28;20395;-77
2023/12/27 05:55:58;;;;;;;17.20;3.92;;;3.20;99.90;;;;;;5074529;28;20056;-76
2023/12/27 05:58:24;;;;;;;18.77;4.15;;;3.20;99.90;;;;;;5056562;28;20135;-76
2023/12/27 06:00:49;;;;;;;14.00;4.40;;;3.30;99.90;;;;;;5056553;28;20052;-76
2023/12/27 06:03:15;;;;;;;10.73;4.18;;;3.20;99.90;;;;;;5074203;28;20139;-76
2023/12/27 06:05:41;;;;;;;16.13;4.63;;;3.30;99.90;;;;;;5071215;28;20052;-76
2023/12/27 06:08:06;;;;;;;17.23;4.47;;;3.20;99.90;;;;;;5073661;28;20044;-76
2023/12/27 06:10:32;;;;;;;11.45;3.92;;;3.20;99.90;;;;;;5072078;28;20045;-76
2023/12/27 06:12:58;;;;;;;14.02;4.25;;;3.10;99.90;;;;;;5073218;28;20044;-76
2023/12/27 06:15:23;;;;;;;13.55;4.10;;;3.20;99.90;;;;;;5072519;28;20048;-76
2023/12/27 06:17:49;;;;;;;15.80;4.32;;;3.20;99.90;;;;;;5054785;28;20055;-76
2023/12/27 06:20:15;;;;;;;15.93;4.68;;;3.20;99.90;;;;;;5071440;28;20044;-76
2023/12/27 06:22:42;;;;;;;13.40;4.80;;;3.20;99.90;;;;;;5071717;28;20044;-76
2023/12/27 06:25:08;;;;;;;16.33;4.47;;;3.20;99.90;;;;;;5071863;28;20061;-76
2023/12/27 06:27:34;;;;;;;16.70;4.35;;;3.30;99.90;;;;;;5072113;28;20052;-76
2023/12/27 06:29:59;;;;;;;15.15;4.38;;;3.30;99.90;;;;;;5071823;28;20044;-76
2023/12/27 06:32:25;;;;;;;12.70;4.30;;;3.20;99.90;;;;;;5073420;28;20045;-75
2023/12/27 06:34:51;;;;;;;19.65;4.45;;;3.30;99.90;;;;;;5071410;28;20087;-76
2023/12/27 06:37:16;;;;;;;13.98;4.30;;;3.30;99.90;;;;;;5071957;28;20074;-76
2023/12/27 06:39:42;;;;;;;19.70;4.47;;;3.30;99.90;;;;;;5055333;28;20052;-77
2023/12/27 06:42:08;;;;;;;13.48;4.38;;;3.30;99.90;;;;;;5054879;28;20044;-76
2023/12/27 06:44:34;;;;;;;12.65;4.60;;;3.30;99.90;;;;;;5038461;28;20041;-76
2023/12/27 06:46:59;;;;;;;12.68;4.47;;;3.40;99.90;;;;;;5071427;28;20048;-76
2023/12/27 06:49:25;;;;;;;10.95;4.00;;;3.40;99.90;;;;;;5054912;28;20044;-76
2023/12/27 06:51:51;;;;;;;14.60;3.40;;;3.40;99.90;;;;;;5055203;28;20468;-76
2023/12/27 06:54:16;;;;;;;15.75;4.32;;;3.50;99.90;;;;;;5073625;28;20064;-75
2023/12/27 06:56:42;;;;;;;12.23;4.18;;;3.40;99.90;;;;;;5055374;28;20044;-76
2023/12/27 06:59:08;;;;;;;20.13;4.28;;;3.40;99.90;;;;;;5071875;28;20048;-76
2023/12/27 07:01:34;;;;;;;15.77;3.67;;;3.40;99.90;;;;;;5072249;28;20094;-76
2023/12/27 07:03:59;;;;;;;11.27;3.65;;;3.50;99.90;;;;;;5039509;28;20442;-76
2023/12/27 07:06:25;;;;;;;16.00;4.20;;;3.70;99.90;;;;;;5071076;28;20044;-76
2023/12/27 07:08:51;;;;;;;13.20;3.78;;;3.40;99.90;;;;;;5071978;28;20045;-76
2023/12/27 07:11:18;;;;;;;17.45;3.75;;;3.50;99.90;;;;;;5055470;28;20052;-76
2023/12/27 07:13:46;;;;;;;8.18;3.38;;;3.60;99.90;;;;;;5055243;28;20049;-76
2023/12/27 07:16:13;;;;;;;15.10;3.65;;;3.60;99.90;;;;;;5057396;28;20051;-76
2023/12/27 07:18:39;;;;;;;10.23;3.38;;;3.60;99.90;;;;;;5059188;28;20044;-77
2023/12/27 07:21:05;;;;;;;12.65;3.95;;;3.50;99.90;;;;;;5075437;28;20102;-76
2023/12/27 07:23:31;;;;;;;10.40;3.50;;;3.60;99.90;;;;;;5042525;28;20053;-77
2023/12/27 07:25:59;;;;;;;16.38;3.80;;;3.60;99.90;;;;;;5076911;28;20063;-76
2023/12/27 07:28:25;;;;;;;17.25;3.92;;;3.60;99.90;;;;;;5076793;28;20544;-77
2023/12/27 07:30:52;;;;;;;10.80;3.92;;;3.60;99.90;;;;;;5076549;28;20041;-77
2023/12/27 07:33:17;;;;;;;17.40;4.85;;;3.70;99.90;;;;;;5073262;28;20052;-77
2023/12/27 07:35:45;;;;;;;12.70;3.85;;;3.60;99.90;;;;;;5058456;28;20109;-77
2023/12/27 07:38:10;;;;;;;13.57;3.53;;;3.60;99.90;;;;;;5077338;28;20052;-76
2023/12/27 07:40:36;;;;;;;14.45;3.63;;;3.60;99.90;;;;;;5078642;28;20041;-77
2023/12/27 07:43:05;;;;;;;12.10;4.20;;;3.60;99.90;;;;;;5076732;28;20054;-76
2023/12/27 07:45:31;;;;;;;15.68;4.03;;;3.60;99.90;;;;;;5077350;28;20044;-75
2023/12/27 07:47:57;;;;;;;13.68;4.53;;;3.60;99.90;;;;;;5075624;28;20129;-77
2023/12/27 07:50:23;;;;;;;14.05;4.22;;;3.60;99.90;;;;;;5075727;28;20499;-76
2023/12/27 07:52:48;;;;;;;9.90;3.55;;;3.60;99.90;;;;;;5076236;28;20056;-78
2023/12/27 07:55:14;;;;;;;14.25;4.70;;;3.50;99.90;;;;;;5075451;28;20040;-77
2023/12/27 07:57:41;;;;;;;13.65;5.10;;;3.70;99.90;;;;;;5058889;28;20517;-78
2023/12/27 08:00:09;;;;;;;14.73;4.72;;;3.60;99.90;;;;;;5075106;28;20048;-78
2023/12/27 08:02:34;;;;;;;12.90;4.10;;;3.60;99.90;;;;;;5075783;28;20060;-77
2023/12/27 08:05:00;;;;;;;18.45;4.55;;;3.80;99.90;;;;;;5075012;28;20123;-77
2023/12/27 08:07:26;;;;;;;18.52;4.80;;;3.70;99.90;;;;;;5075364;28;20098;-78
2023/12/27 08:09:51;;;;;;;14.40;4.55;;;3.70;99.90;;;;;;5076349;28;20087;-78
2023/12/27 08:12:17;;;;;;;12.32;4.28;;;3.70;99.90;;;;;;5059359;28;20048;-77
2023/12/27 08:14:43;;;;;;;11.77;4.53;;;3.70;99.90;;;;;;5075328;28;20083;-75
2023/12/27 08:17:09;;;;;;;12.68;4.35;;;3.70;99.90;;;;;;5057978;28;20044;-76
2023/12/27 08:19:35;;;;;;;14.38;4.18;;;3.70;99.90;;;;;;5075921;28;20480;-76
2023/12/27 08:22:01;;;;;;;12.82;4.10;;;3.70;99.90;;;;;;5074866;28;20113;-77
2023/12/27 08:24:26;;;;;;;10.02;4.20;;;3.60;99.90;;;;;;5076419;28;20056;-77
2023/12/27 08:26:52;;;;;;;13.13;5.05;;;3.60;99.90;;;;;;5057592;28;20120;-78
2023/12/27 08:29:18;;;;;;;11.13;4.78;;;3.60;99.90;;;;;;5074688;28;20476;-77
2023/12/27 08:31:43;;;;;;;9.88;3.92;;;3.70;99.90;;;;;;5075139;28;20403;-76
2023/12/27 08:34:09;;;;;;;12.43;4.40;;;3.60;99.90;;;;;;5073188;28;20739;-76
2023/12/27 08:36:35;;;;;;;13.27;3.42;;;3.60;99.90;;;;;;5074803;28;20044;-77
2023/12/27 08:39:00;;;;;;;17.85;4.63;;;3.60;99.90;;;;;;5056621;28;20135;-77
2023/12/27 08:41:26;;;;;;;12.00;4.10;;;3.70;99.90;;;;;;5040901;28;20096;-76
2023/12/27 08:43:53;;;;;;;10.43;3.75;;;3.80;99.90;;;;;;5057159;28;20547;-79
2023/12/27 08:46:22;;;;;;;11.35;4.00;;;3.80;99.90;;;;;;5075282;28;20086;-76
2023/12/27 08:48:48;;;;;;;9.32;3.88;;;3.90;99.90;;;;;;5073661;28;20521;-77
2023/12/27 08:51:14;;;;;;;12.55;3.55;;;3.80;99.90;;;;;;5074411;28;20041;-77
2023/12/27 08:53:40;;;;;;;14.48;4.35;;;3.80;99.90;;;;;;5056497;28;20044;-77
2023/12/27 08:56:07;;;;;;;12.57;3.80;;;4.00;99.90;;;;;;5074189;28;20083;-75
2023/12/27 08:58:32;;;;;;;16.30;4.50;;;3.80;99.90;;;;;;5073885;28;20045;-74
2023/12/27 09:00:58;;;;;;;16.70;4.60;;;3.90;99.90;;;;;;5073721;28;20051;-76
2023/12/27 09:03:24;;;;;;;13.63;4.30;;;3.90;99.90;;;;;;5075146;28;20503;-75
2023/12/27 09:05:50;;;;;;;11.82;3.78;;;3.90;99.90;;;;;;5057684;28;20048;-75
2023/12/27 09:08:16;;;;;;;8.52;4.40;;;4.00;99.90;;;;;;5075423;28;20044;-76
2023/12/27 09:10:42;;;;;;;13.07;4.10;;;4.00;99.90;;;;;;5073609;28;20052;-75
2023/12/27 09:13:09;;;;;;;12.30;3.47;;;4.10;99.90;;;;;;5074084;28;20044;-74
2023/12/27 09:15:34;;;;;;;11.90;3.97;;;4.10;99.90;;;;;;5073256;28;20071;-74
2023/12/27 09:18:00;;;;;;;15.68;3.78;;;4.20;99.90;;;;;;5072495;28;20040;-75
2023/12/27 09:20:26;;;;;;;12.55;4.78;;;4.10;99.90;;;;;;5072539;28;20052;-74
2023/12/27 09:22:52;;;;;;;13.48;3.60;;;4.10;99.90;;;;;;5074335;28;20052;-74
2023/12/27 09:25:17;;;;;;;13.30;3.10;;;4.20;99.90;;;;;;5056716;28;20040;-75
2023/12/27 09:27:45;;;;;;;13.48;3.58;;;4.20;99.90;;;;;;5056752;28;20099;-74
2023/12/27 09:30:11;;;;;;;12.82;3.80;;;4.20;99.90;;;;;;5073485;28;20036;-74
2023/12/27 09:32:38;;;;;;;13.63;3.83;;;4.30;99.90;;;;;;5072684;28;20052;-74
2023/12/27 09:35:04;;;;;;;12.40;3.47;;;4.20;99.90;;;;;;5039527;28;20096;-74
2023/12/27 09:37:30;;;;;;;13.00;3.47;;;4.30;99.90;;;;;;5073230;28;20095;-74
2023/12/27 09:39:57;;;;;;;12.77;3.33;;;4.30;99.90;;;;;;5073340;28;20044;-74
2023/12/27 09:42:23;;;;;;;12.70;3.72;;;4.30;99.90;;;;;;5072922;28;20084;-76
2023/12/27 09:44:50;;;;;;;6.15;2.97;;;4.30;99.90;;;;;;5073706;28;20051;-74
2023/12/27 09:47:17;;;;;;;15.95;3.22;;;4.30;99.90;;;;;;5071938;28;20100;-75
2023/12/27 09:49:43;;;;;;;15.02;3.42;;;4.40;99.90;;;;;;5039047;28;20491;-74
2023/12/27 09:52:09;;;;;;;15.85;3.92;;;4.40;99.90;;;;;;5073144;28;20123;-75
2023/12/27 09:54:35;;;;;;;13.85;3.30;;;4.40;99.90;;;;;;5072398;28;20041;-76
2023/12/27 09:57:04;;;;;;;19.02;4.22;;;4.40;99.90;;;;;;5071812;28;20483;-77
2023/12/27 09:59:32;;;;;;;11.65;3.42;;;4.40;99.90;;;;;;5073830;28;20036;-76
2023/12/27 10:02:02;;;;;;;13.70;3.90;;;4.40;99.90;;;;;;5074833;28;20427;-76
2023/12/27 10:04:33;;;;;;;15.50;3.35;;;4.40;99.90;;;;;;5072372;28;20049;-75
2023/12/27 10:07:00;;;;;;;11.30;3.67;;;4.40;99.90;;;;;;5071843;28;20049;-76
2023/12/27 10:09:26;;;;;;;16.25;3.70;;;4.50;99.90;;;;;;5073125;28;20044;-76
2023/12/27 10:11:53;;;;;;;9.75;3.60;;;4.50;99.90;;;;;;5073384;28;20044;-76
2023/12/27 10:14:19;;;;;;;11.07;3.85;;;4.60;99.90;;;;;;5073294;28;20432;-72
2023/12/27 10:16:45;;;;;;;14.02;3.38;;;4.50;99.90;;;;;;5071620;28;20131;-78
2023/12/27 10:19:49;;;;;;;9.85;2.92;;;4.50;99.90;;;;;;5070807;28;20124;-78
2023/12/27 10:22:15;;;;;;;10.63;3.60;;;4.60;99.90;;;;;;5071539;28;20080;-75
2023/12/27 10:24:41;;;;;;;15.05;3.83;;;4.70;99.90;;;;;;5073411;28;20052;-78
2023/12/27 10:27:12;;;;;;;15.55;4.10;;;4.60;99.90;;;;;;5072431;28;20054;-76
2023/12/27 10:29:44;;;;;;;13.40;3.58;;;4.70;99.90;;;;;;5073647;28;20052;-78
2023/12/27 10:32:09;;;;;;;9.45;3.67;;;4.70;99.90;;;;;;5074617;28;20086;-78
2023/12/27 10:34:37;;;;;;;12.75;3.78;;;4.80;99.90;;;;;;5074738;28;20048;-77
2023/12/27 10:37:07;;;;;;;8.63;4.00;;;4.70;99.90;;;;;;5072278;28;20048;-78
2023/12/27 10:39:33;;;;;;;15.05;4.70;;;4.70;99.90;;;;;;5073802;28;20451;-81
2023/12/27 10:41:58;;;;;;;12.73;4.28;;;4.80;99.90;;;;;;5024244;28;20055;-79
2023/12/27 10:44:24;;;;;;;11.90;3.60;;;4.90;99.90;;;;;;5073494;28;20059;-79
2023/12/27 10:46:51;;;;;;;18.80;4.85;;;4.90;99.90;;;;;;5073728;28;20078;-80
2023/12/27 10:49:18;;;;;;;16.50;4.25;;;4.90;99.90;;;;;;5073945;28;20083;-78
2023/12/27 10:51:47;;;;;;;12.48;4.53;;;4.90;99.90;;;;;;5075640;28;20075;-78
2023/12/27 10:54:13;;;;;;;10.23;3.67;;;5.00;99.90;;;;;;5077206;28;20048;-78
2023/12/27 10:56:40;;;;;;;8.90;3.67;;;5.00;99.90;;;;;;5077972;28;20051;-77
2023/12/27 10:59:09;;;;;;;14.90;4.18;;;5.00;99.90;;;;;;5077666;28;20072;-78
2023/12/27 11:01:37;;;;;;;15.13;6.35;;;5.10;99.90;;;;;;5073287;28;20045;-79
2023/12/27 11:04:14;;;;;;;12.75;4.43;;;5.20;99.90;;;;;;5075878;28;20048;-79
2023/12/27 11:06:41;;;;;;;18.05;7.28;;;5.20;99.90;;;;;;5076626;28;20052;-80
2023/12/27 11:09:08;;;;;;;30.83;16.60;;;5.20;99.90;;;;;;5075914;28;20048;-80
2023/12/27 11:11:40;;;;;;;15.75;5.35;;;5.20;99.90;;;;;;5075948;28;20597;-81
2023/12/27 11:14:09;;;;;;;17.10;5.03;;;5.20;99.90;;;;;;5078473;28;20105;-80
2023/12/27 11:16:39;;;;;;;16.98;5.57;;;5.30;99.90;;;;;;5076927;28;20113;-79
2023/12/27 11:19:07;;;;;;;12.82;4.00;;;5.30;99.90;;;;;;5077379;28;20041;-78
2023/12/27 11:21:36;;;;;;;15.23;5.55;;;5.30;99.90;;;;;;5076105;28;20048;-77
2023/12/27 11:24:04;;;;;;;14.60;5.88;;;5.30;99.90;;;;;;5077191;28;20102;-80
2023/12/27 11:26:33;;;;;;;15.05;4.63;;;5.30;99.90;;;;;;5077482;28;20127;-84
2023/12/27 11:29:00;;;;;;;18.88;4.93;;;5.40;99.90;;;;;;5078503;28;20052;-82
2023/12/27 11:31:26;;;;;;;15.07;5.10;;;5.40;99.90;;;;;;5076574;28;20106;-81
2023/12/27 11:33:52;;;;;;;9.52;4.75;;;5.30;99.90;;;;;;5076585;28;20052;-82
2023/12/27 11:36:20;;;;;;;10.60;4.45;;;5.40;99.90;;;;;;5076354;28;20552;-80
2023/12/27 11:38:46;;;;;;;13.40;5.03;;;5.30;99.90;;;;;;5077606;28;20095;-81
2023/12/27 11:41:12;;;;;;;11.80;5.65;;;5.30;99.90;;;;;;5043413;28;20052;-81
2023/12/27 11:43:53;;;;;;;18.98;6.03;;;5.40;99.90;;;;;;5078841;28;20055;-83
2023/12/27 11:46:27;;;;;;;14.30;6.15;;;5.40;99.90;;;;;;5077952;28;20060;-78
2023/12/27 11:48:52;;;;;;;16.13;6.45;;;5.40;99.90;;;;;;5079105;28;20098;-84
2023/12/27 11:51:32;;;;;;;8.77;4.50;;;5.50;99.90;;;;;;5078748;28;20044;-75
2023/12/27 11:53:59;;;;;;;16.55;7.03;;;5.30;99.90;;;;;;5076043;28;20048;-79
2023/12/27 11:56:32;;;;;;;12.88;5.00;;;5.50;99.90;;;;;;5076655;28;20230;-76
2023/12/27 11:59:00;;;;;;;14.23;6.15;;;5.40;99.90;;;;;;5077024;28;20040;-74
2023/12/27 12:01:27;;;;;;;12.73;5.78;;;5.40;99.90;;;;;;5076426;28;20098;-75
2023/12/27 12:04:18;;;;;;;14.88;6.00;;;5.40;99.90;;;;;;5076788;28;20044;-77
2023/12/27 12:06:59;;;;;;;17.02;6.47;;;5.30;99.90;;;;;;5058685;28;20044;-76
2023/12/27 12:09:36;;;;;;;16.15;6.93;;;5.50;99.90;;;;;;5075440;28;20131;-75
2023/12/27 12:12:25;;;;;;;18.00;7.35;;;5.40;99.90;;;;;;5076434;28;20048;-75
2023/12/27 12:14:55;;;;;;;18.40;7.95;;;5.30;99.90;;;;;;5076436;28;20055;-74
2023/12/27 12:17:21;;;;;;;17.17;6.25;;;5.30;99.90;;;;;;5075212;28;20052;-75
2023/12/27 12:19:51;;;;;;;15.27;6.65;;;5.30;99.90;;;;;;5076470;28;20051;-78
2023/12/27 12:22:18;;;;;;;19.42;7.05;;;5.30;99.90;;;;;;5075797;28;20147;-75
2023/12/27 12:24:47;;;;;;;14.32;7.85;;;5.20;99.90;;;;;;5076390;28;20714;-75
2023/12/27 12:27:21;;;;;;;10.32;5.95;;;5.30;99.90;;;;;;5074426;28;20048;-74
2023/12/27 12:29:46;;;;;;;16.92;7.15;;;5.20;99.90;;;;;;5075949;28;20093;-74
2023/12/27 12:32:13;;;;;;;12.82;6.47;;;5.30;99.90;;;;;;5075227;28;20127;-74
2023/12/27 12:34:39;;;;;;;10.52;5.72;;;5.20;99.90;;;;;;5072490;28;20149;-76
2023/12/27 12:37:05;;;;;;;15.57;7.78;;;5.20;99.90;;;;;;5056614;28;20384;-75
2023/12/27 12:39:32;;;;;;;18.92;9.05;;;5.20;99.90;;;;;;5075100;28;20479;-76
2023/12/27 12:41:58;;;;;;;17.45;8.18;;;5.30;99.90;;;;;;5073913;28;20052;-72
2023/12/27 12:44:24;;;;;;;11.10;6.55;;;5.30;99.90;;;;;;5074165;28;20063;-75